sensor_id;sensor_type;location;lat;lon;timestamp;temperature;humidity
1812;DHT22;904;47.814;11.134;2022-10-26T00:00:48;11.70;97.10
1812;DHT22;904;47.814;11.134;2022-10-26T00:03:17;11.60;97.20
1812;DHT22;904;47.814;11.134;2022-10-26T00:05:44;11.60;97.80
1812;DHT22;904;47.814;11.134;2022-10-26T00:08:11;11.50;98.30
1812;DHT22;904;47.814;11.134;2022-10-26T00:10:38;11.40;98.80
1812;DHT22;904;47.814;11.134;2022-10-26T00:13:09;11.40;99.00
1812;DHT22;904;47.814;11.134;2022-10-26T00:15:39;11.30;99.60
1812;DHT22;904;47.814;11.134;2022-10-26T00:18:07;11.20;99.90
1812;DHT22;904;47.814;11.134;2022-10-26T00:20:34;11.30;99.90
1812;DHT22;904;47.814;11.134;2022-10-26T00:23:01;11.40;99.90
1812;DHT22;904;47.814;11.134;2022-10-26T00:25:28;11.50;99.70
1812;DHT22;904;47.814;11.134;2022-10-26T00:27:55;11.60;99.60
1812;DHT22;904;47.814;11.134;2022-10-26T00:30:22;11.70;99.40
1812;DHT22;904;47.814;11.134;2022-10-26T00:32:49;11.80;99.30
1812;DHT22;904;47.814;11.134;2022-10-26T00:35:18;11.80;99.00
1812;DHT22;904;47.814;11.134;2022-10-26T00:37:45;11.80;98.90
1812;DHT22;904;47.814;11.134;2022-10-26T00:40:12;11.90;98.70
1812;DHT22;904;47.814;11.134;2022-10-26T00:42:39;12.00;98.40
1812;DHT22;904;47.814;11.134;2022-10-26T00:45:18;11.90;98.10
1812;DHT22;904;47.814;11.134;2022-10-26T00:47:48;12.00;98.20
1812;DHT22;904;47.814;11.134;2022-10-26T00:50:19;12.00;98.10
1812;DHT22;904;47.814;11.134;2022-10-26T00:52:47;12.00;98.00
1812;DHT22;904;47.814;11.134;2022-10-26T00:55:16;12.10;98.20
1812;DHT22;904;47.814;11.134;2022-10-26T00:57:46;12.10;98.10
1812;DHT22;904;47.814;11.134;2022-10-26T01:00:14;12.10;98.20
1812;DHT22;904;47.814;11.134;2022-10-26T01:02:42;12.10;98.00
1812;DHT22;904;47.814;11.134;2022-10-26T01:05:13;12.10;98.20
1812;DHT22;904;47.814;11.134;2022-10-26T01:07:42;12.10;98.10
1812;DHT22;904;47.814;11.134;2022-10-26T01:10:10;12.10;98.20
1812;DHT22;904;47.814;11.134;2022-10-26T01:12:38;12.10;98.30
1812;DHT22;904;47.814;11.134;2022-10-26T01:15:06;12.10;98.10
1812;DHT22;904;47.814;11.134;2022-10-26T01:17:48;12.10;98.20
1812;DHT22;904;47.814;11.134;2022-10-26T01:23:30;12.10;98.70
1812;DHT22;904;47.814;11.134;2022-10-26T01:26:27;12.00;98.80
1812;DHT22;904;47.814;11.134;2022-10-26T01:29:19;12.10;98.90
1812;DHT22;904;47.814;11.134;2022-10-26T01:31:56;12.10;98.80
1812;DHT22;904;47.814;11.134;2022-10-26T01:34:31;12.20;98.70
1812;DHT22;904;47.814;11.134;2022-10-26T01:37:03;12.10;98.40
1812;DHT22;904;47.814;11.134;2022-10-26T01:39:37;12.10;98.60
1812;DHT22;904;47.814;11.134;2022-10-26T01:42:07;12.00;98.80
1812;DHT22;904;47.814;11.134;2022-10-26T01:44:38;11.90;99.10
1812;DHT22;904;47.814;11.134;2022-10-26T01:47:10;12.00;99.30
1812;DHT22;904;47.814;11.134;2022-10-26T01:49:42;11.90;99.30
1812;DHT22;904;47.814;11.134;2022-10-26T01:52:11;11.90;99.50
1812;DHT22;904;47.814;11.134;2022-10-26T01:54:38;12.00;99.50
1812;DHT22;904;47.814;11.134;2022-10-26T01:57:08;11.90;99.80
1812;DHT22;904;47.814;11.134;2022-10-26T01:59:57;11.90;99.90
1812;DHT22;904;47.814;11.134;2022-10-26T02:02:55;11.90;99.90
1812;DHT22;904;47.814;11.134;2022-10-26T02:05:59;11.90;99.90
1812;DHT22;904;47.814;11.134;2022-10-26T02:08:51;11.90;99.90
1812;DHT22;904;47.814;11.134;2022-10-26T02:11:24;11.90;99.90
1812;DHT22;904;47.814;11.134;2022-10-26T02:14:06;11.80;99.90
1812;DHT22;904;47.814;11.134;2022-10-26T02:16:38;11.70;99.90
1812;DHT22;904;47.814;11.134;2022-10-26T02:19:15;11.70;99.90
1812;DHT22;904;47.814;11.134;2022-10-26T02:21:49;11.90;99.90
1812;DHT22;904;47.814;11.134;2022-10-26T02:24:19;11.90;99.90
1812;DHT22;904;47.814;11.134;2022-10-26T02:26:48;11.90;99.90
1812;DHT22;904;47.814;11.134;2022-10-26T02:29:18;11.90;99.90
1812;DHT22;904;47.814;11.134;2022-10-26T02:31:47;12.00;99.90
1812;DHT22;904;47.814;11.134;2022-10-26T02:34:20;12.10;99.90
1812;DHT22;904;47.814;11.134;2022-10-26T02:36:50;12.00;99.90
1812;DHT22;904;47.814;11.134;2022-10-26T02:39:20;12.00;99.90
1812;DHT22;904;47.814;11.134;2022-10-26T02:41:48;12.00;99.90
1812;DHT22;904;47.814;11.134;2022-10-26T02:44:21;12.10;99.90
1812;DHT22;904;47.814;11.134;2022-10-26T02:46:49;12.10;99.90
1812;DHT22;904;47.814;11.134;2022-10-26T02:49:19;12.20;99.90
1812;DHT22;904;47.814;11.134;2022-10-26T02:51:49;12.20;99.90
1812;DHT22;904;47.814;11.134;2022-10-26T02:54:24;12.20;99.90
1812;DHT22;904;47.814;11.134;2022-10-26T02:56:55;12.20;99.90
1812;DHT22;904;47.814;11.134;2022-10-26T02:59:26;12.30;99.90
1812;DHT22;904;47.814;11.134;2022-10-26T03:01:54;12.40;99.90
1812;DHT22;904;47.814;11.134;2022-10-26T03:04:29;12.50;99.90
1812;DHT22;904;47.814;11.134;2022-10-26T03:06:56;12.50;99.90
1812;DHT22;904;47.814;11.134;2022-10-26T03:09:23;12.60;99.90
1812;DHT22;904;47.814;11.134;2022-10-26T03:11:50;12.60;99.90
1812;DHT22;904;47.814;11.134;2022-10-26T03:14:18;12.70;99.90
1812;DHT22;904;47.814;11.134;2022-10-26T03:16:45;12.70;99.90
1812;DHT22;904;47.814;11.134;2022-10-26T03:19:12;12.80;99.90
1812;DHT22;904;47.814;11.134;2022-10-26T03:21:40;12.80;99.90
1812;DHT22;904;47.814;11.134;2022-10-26T03:24:08;12.90;99.90
1812;DHT22;904;47.814;11.134;2022-10-26T03:26:35;12.90;99.90
1812;DHT22;904;47.814;11.134;2022-10-26T03:29:02;12.90;99.90
1812;DHT22;904;47.814;11.134;2022-10-26T03:31:29;12.90;99.90
1812;DHT22;904;47.814;11.134;2022-10-26T03:33:56;12.90;99.90
1812;DHT22;904;47.814;11.134;2022-10-26T03:36:23;12.90;99.90
1812;DHT22;904;47.814;11.134;2022-10-26T03:38:52;12.90;99.90
1812;DHT22;904;47.814;11.134;2022-10-26T03:41:19;12.90;99.90
1812;DHT22;904;47.814;11.134;2022-10-26T03:43:46;12.90;99.90
1812;DHT22;904;47.814;11.134;2022-10-26T03:46:14;12.90;99.90
1812;DHT22;904;47.814;11.134;2022-10-26T03:48:43;12.90;99.90
1812;DHT22;904;47.814;11.134;2022-10-26T03:51:10;12.90;99.90
1812;DHT22;904;47.814;11.134;2022-10-26T03:53:37;12.90;99.90
1812;DHT22;904;47.814;11.134;2022-10-26T03:56:06;12.90;99.90
1812;DHT22;904;47.814;11.134;2022-10-26T03:58:33;13.00;99.90
1812;DHT22;904;47.814;11.134;2022-10-26T04:01:00;13.00;99.90
1812;DHT22;904;47.814;11.134;2022-10-26T04:03:27;13.00;99.90
1812;DHT22;904;47.814;11.134;2022-10-26T04:05:54;13.00;99.90
1812;DHT22;904;47.814;11.134;2022-10-26T04:08:22;12.90;99.90
1812;DHT22;904;47.814;11.134;2022-10-26T04:10:49;12.90;99.90
1812;DHT22;904;47.814;11.134;2022-10-26T04:13:18;12.90;99.90
1812;DHT22;904;47.814;11.134;2022-10-26T04:15:45;12.90;99.90
1812;DHT22;904;47.814;11.134;2022-10-26T04:18:12;12.90;99.90
1812;DHT22;904;47.814;11.134;2022-10-26T04:20:39;13.00;99.90
1812;DHT22;904;47.814;11.134;2022-10-26T04:23:10;13.00;99.90
1812;DHT22;904;47.814;11.134;2022-10-26T04:25:38;13.00;99.90
1812;DHT22;904;47.814;11.134;2022-10-26T04:28:06;13.00;99.90
1812;DHT22;904;47.814;11.134;2022-10-26T04:30:35;13.00;99.90
1812;DHT22;904;47.814;11.134;2022-10-26T04:33:02;13.00;99.90
1812;DHT22;904;47.814;11.134;2022-10-26T04:35:30;13.10;99.90
1812;DHT22;904;47.814;11.134;2022-10-26T04:37:57;13.10;99.90
1812;DHT22;904;47.814;11.134;2022-10-26T04:40:26;13.10;99.90
1812;DHT22;904;47.814;11.134;2022-10-26T04:42:53;13.10;99.90
1812;DHT22;904;47.814;11.134;2022-10-26T04:45:20;13.10;99.90
1812;DHT22;904;47.814;11.134;2022-10-26T04:47:58;13.10;99.90
1812;DHT22;904;47.814;11.134;2022-10-26T04:50:25;13.10;99.90
1812;DHT22;904;47.814;11.134;2022-10-26T04:52:55;13.20;99.90
1812;DHT22;904;47.814;11.134;2022-10-26T04:55:22;13.20;99.90
1812;DHT22;904;47.814;11.134;2022-10-26T04:57:50;13.10;99.90
1812;DHT22;904;47.814;11.134;2022-10-26T05:00:17;13.10;99.90
1812;DHT22;904;47.814;11.134;2022-10-26T05:02:44;13.00;99.90
1812;DHT22;904;47.814;11.134;2022-10-26T05:05:13;13.10;99.90
1812;DHT22;904;47.814;11.134;2022-10-26T05:07:40;13.10;99.90
1812;DHT22;904;47.814;11.134;2022-10-26T05:10:08;13.10;99.90
1812;DHT22;904;47.814;11.134;2022-10-26T05:12:36;13.10;99.90
1812;DHT22;904;47.814;11.134;2022-10-26T05:15:04;13.00;99.90
1812;DHT22;904;47.814;11.134;2022-10-26T05:17:32;13.10;99.90
1812;DHT22;904;47.814;11.134;2022-10-26T05:19:59;12.90;99.90
1812;DHT22;904;47.814;11.134;2022-10-26T05:22:31;12.80;99.90
1812;DHT22;904;47.814;11.134;2022-10-26T05:24:59;12.90;99.90
1812;DHT22;904;47.814;11.134;2022-10-26T05:27:26;12.90;99.90
1812;DHT22;904;47.814;11.134;2022-10-26T05:29:53;12.90;99.90
1812;DHT22;904;47.814;11.134;2022-10-26T05:32:20;12.90;99.90
1812;DHT22;904;47.814;11.134;2022-10-26T05:34:47;12.90;99.90
1812;DHT22;904;47.814;11.134;2022-10-26T05:37:14;12.90;99.90
1812;DHT22;904;47.814;11.134;2022-10-26T05:39:43;12.90;99.90
1812;DHT22;904;47.814;11.134;2022-10-26T05:42:10;13.00;99.90
1812;DHT22;904;47.814;11.134;2022-10-26T05:44:37;13.00;99.90
1812;DHT22;904;47.814;11.134;2022-10-26T05:47:04;13.10;99.90
1812;DHT22;904;47.814;11.134;2022-10-26T05:49:31;13.20;99.90
1812;DHT22;904;47.814;11.134;2022-10-26T05:51:58;13.30;99.90
1812;DHT22;904;47.814;11.134;2022-10-26T05:54:25;13.40;99.90
1812;DHT22;904;47.814;11.134;2022-10-26T05:56:54;13.40;99.90
1812;DHT22;904;47.814;11.134;2022-10-26T05:59:22;13.30;99.90
1812;DHT22;904;47.814;11.134;2022-10-26T06:01:59;13.40;99.90
1812;DHT22;904;47.814;11.134;2022-10-26T06:04:35;13.40;99.90
1812;DHT22;904;47.814;11.134;2022-10-26T06:07:07;13.40;99.90
1812;DHT22;904;47.814;11.134;2022-10-26T06:09:36;13.40;99.90
1812;DHT22;904;47.814;11.134;2022-10-26T06:12:06;13.40;99.90
1812;DHT22;904;47.814;11.134;2022-10-26T06:14:34;13.50;99.90
1812;DHT22;904;47.814;11.134;2022-10-26T06:20:02;13.50;99.90
1812;DHT22;904;47.814;11.134;2022-10-26T06:22:43;13.40;99.90
1812;DHT22;904;47.814;11.134;2022-10-26T06:25:23;13.50;99.90
1812;DHT22;904;47.814;11.134;2022-10-26T06:28:00;13.50;99.90
1812;DHT22;904;47.814;11.134;2022-10-26T06:30:30;13.60;99.90
1812;DHT22;904;47.814;11.134;2022-10-26T06:32:58;13.70;99.90
1812;DHT22;904;47.814;11.134;2022-10-26T06:35:34;13.70;99.90
1812;DHT22;904;47.814;11.134;2022-10-26T06:38:06;13.80;99.90
1812;DHT22;904;47.814;11.134;2022-10-26T06:40:37;13.80;99.90
1812;DHT22;904;47.814;11.134;2022-10-26T06:43:12;13.80;99.90
1812;DHT22;904;47.814;11.134;2022-10-26T06:45:42;13.80;99.90
1812;DHT22;904;47.814;11.134;2022-10-26T06:48:15;13.90;99.90
1812;DHT22;904;47.814;11.134;2022-10-26T06:50:49;13.90;99.90
1812;DHT22;904;47.814;11.134;2022-10-26T06:53:22;13.90;99.90
1812;DHT22;904;47.814;11.134;2022-10-26T06:55:53;14.00;99.90
1812;DHT22;904;47.814;11.134;2022-10-26T06:58:26;14.00;99.90
1812;DHT22;904;47.814;11.134;2022-10-26T07:00:54;14.00;99.90
1812;DHT22;904;47.814;11.134;2022-10-26T07:03:22;14.10;99.90
1812;DHT22;904;47.814;11.134;2022-10-26T07:05:49;14.10;99.90
1812;DHT22;904;47.814;11.134;2022-10-26T07:08:16;14.10;99.90
1812;DHT22;904;47.814;11.134;2022-10-26T07:10:43;14.20;99.90
1812;DHT22;904;47.814;11.134;2022-10-26T07:13:10;14.20;99.90
1812;DHT22;904;47.814;11.134;2022-10-26T07:15:39;14.20;99.90
1812;DHT22;904;47.814;11.134;2022-10-26T07:18:08;14.20;99.90
1812;DHT22;904;47.814;11.134;2022-10-26T07:20:36;14.20;99.90
1812;DHT22;904;47.814;11.134;2022-10-26T07:23:04;14.20;99.90
1812;DHT22;904;47.814;11.134;2022-10-26T07:25:33;14.20;99.90
1812;DHT22;904;47.814;11.134;2022-10-26T07:28:03;14.30;99.90
1812;DHT22;904;47.814;11.134;2022-10-26T07:30:31;14.40;99.90
1812;DHT22;904;47.814;11.134;2022-10-26T07:33:00;14.40;99.90
1812;DHT22;904;47.814;11.134;2022-10-26T07:35:27;14.50;99.90
1812;DHT22;904;47.814;11.134;2022-10-26T07:38:02;14.50;99.90
1812;DHT22;904;47.814;11.134;2022-10-26T07:40:29;14.60;99.90
1812;DHT22;904;47.814;11.134;2022-10-26T07:42:57;14.60;99.90
1812;DHT22;904;47.814;11.134;2022-10-26T07:45:25;14.70;99.90
1812;DHT22;904;47.814;11.134;2022-10-26T07:47:53;14.80;99.90
1812;DHT22;904;47.814;11.134;2022-10-26T07:50:22;14.90;99.90
1812;DHT22;904;47.814;11.134;2022-10-26T07:52:49;15.10;99.90
1812;DHT22;904;47.814;11.134;2022-10-26T07:55:16;15.30;99.90
1812;DHT22;904;47.814;11.134;2022-10-26T07:57:44;15.50;99.90
1812;DHT22;904;47.814;11.134;2022-10-26T08:00:12;15.70;99.90
1812;DHT22;904;47.814;11.134;2022-10-26T08:02:39;15.80;99.70
1812;DHT22;904;47.814;11.134;2022-10-26T08:05:06;15.80;99.40
1812;DHT22;904;47.814;11.134;2022-10-26T08:07:39;15.70;99.30
1812;DHT22;904;47.814;11.134;2022-10-26T08:10:08;15.70;99.20
1812;DHT22;904;47.814;11.134;2022-10-26T08:12:35;15.80;99.30
1812;DHT22;904;47.814;11.134;2022-10-26T08:15:02;15.90;99.30
1812;DHT22;904;47.814;11.134;2022-10-26T08:17:29;16.00;99.40
1812;DHT22;904;47.814;11.134;2022-10-26T08:19:56;16.20;99.30
1812;DHT22;904;47.814;11.134;2022-10-26T08:22:23;16.50;99.00
1812;DHT22;904;47.814;11.134;2022-10-26T08:24:51;16.70;98.80
1812;DHT22;904;47.814;11.134;2022-10-26T08:27:18;16.90;98.60
1812;DHT22;904;47.814;11.134;2022-10-26T08:29:45;17.00;98.10
1812;DHT22;904;47.814;11.134;2022-10-26T08:32:12;17.10;97.90
1812;DHT22;904;47.814;11.134;2022-10-26T08:34:39;17.20;97.50
1812;DHT22;904;47.814;11.134;2022-10-26T08:37:06;17.30;97.40
1812;DHT22;904;47.814;11.134;2022-10-26T08:39:33;17.40;97.20
1812;DHT22;904;47.814;11.134;2022-10-26T08:42:06;17.60;96.70
1812;DHT22;904;47.814;11.134;2022-10-26T08:44:42;17.90;97.10
1812;DHT22;904;47.814;11.134;2022-10-26T08:47:14;18.30;96.40
1812;DHT22;904;47.814;11.134;2022-10-26T08:49:47;18.60;95.70
1812;DHT22;904;47.814;11.134;2022-10-26T08:52:21;18.90;94.80
1812;DHT22;904;47.814;11.134;2022-10-26T08:54:51;19.10;93.90
1812;DHT22;904;47.814;11.134;2022-10-26T08:57:24;19.10;92.70
1812;DHT22;904;47.814;11.134;2022-10-26T08:59:56;19.00;91.20
1812;DHT22;904;47.814;11.134;2022-10-26T09:02:24;18.70;90.40
1812;DHT22;904;47.814;11.134;2022-10-26T09:04:52;18.60;90.80
1812;DHT22;904;47.814;11.134;2022-10-26T09:07:34;18.30;91.30
1812;DHT22;904;47.814;11.134;2022-10-26T09:10:09;18.00;92.00
1812;DHT22;904;47.814;11.134;2022-10-26T09:12:46;17.80;92.80
1812;DHT22;904;47.814;11.134;2022-10-26T09:15:22;17.60;93.40
1812;DHT22;904;47.814;11.134;2022-10-26T09:18:00;17.60;93.90
1812;DHT22;904;47.814;11.134;2022-10-26T09:20:43;17.60;94.70
1812;DHT22;904;47.814;11.134;2022-10-26T09:23:24;17.60;95.30
1812;DHT22;904;47.814;11.134;2022-10-26T09:25:58;17.60;95.40
1812;DHT22;904;47.814;11.134;2022-10-26T09:28:29;17.60;95.50
1812;DHT22;904;47.814;11.134;2022-10-26T09:31:00;17.60;95.50
1812;DHT22;904;47.814;11.134;2022-10-26T09:33:28;17.60;95.60
1812;DHT22;904;47.814;11.134;2022-10-26T09:35:58;17.50;95.30
1812;DHT22;904;47.814;11.134;2022-10-26T09:38:28;17.50;95.80
1812;DHT22;904;47.814;11.134;2022-10-26T09:41:00;17.70;96.20
1812;DHT22;904;47.814;11.134;2022-10-26T09:43:34;18.10;96.20
1812;DHT22;904;47.814;11.134;2022-10-26T09:46:04;18.70;96.50
1812;DHT22;904;47.814;11.134;2022-10-26T09:48:34;19.90;95.80
1812;DHT22;904;47.814;11.134;2022-10-26T09:51:02;21.40;91.00
1812;DHT22;904;47.814;11.134;2022-10-26T09:53:30;22.10;84.60
1812;DHT22;904;47.814;11.134;2022-10-26T09:56:02;22.00;83.30
1812;DHT22;904;47.814;11.134;2022-10-26T09:58:35;21.80;81.70
1812;DHT22;904;47.814;11.134;2022-10-26T10:01:03;21.60;81.30
1812;DHT22;904;47.814;11.134;2022-10-26T10:03:31;21.50;80.60
1812;DHT22;904;47.814;11.134;2022-10-26T10:06:17;21.90;82.00
1812;DHT22;904;47.814;11.134;2022-10-26T10:09:04;22.30;75.50
1812;DHT22;904;47.814;11.134;2022-10-26T10:11:37;22.30;72.20
1812;DHT22;904;47.814;11.134;2022-10-26T10:14:08;22.20;72.10
1812;DHT22;904;47.814;11.134;2022-10-26T10:16:39;22.10;71.70
1812;DHT22;904;47.814;11.134;2022-10-26T10:19:21;21.90;71.20
1812;DHT22;904;47.814;11.134;2022-10-26T10:21:50;21.90;72.90
1812;DHT22;904;47.814;11.134;2022-10-26T10:24:23;21.90;73.00
1812;DHT22;904;47.814;11.134;2022-10-26T10:26:59;22.10;74.00
1812;DHT22;904;47.814;11.134;2022-10-26T10:29:30;22.40;70.90
1812;DHT22;904;47.814;11.134;2022-10-26T10:31:59;22.60;72.40
1812;DHT22;904;47.814;11.134;2022-10-26T10:34:26;23.60;70.30
1812;DHT22;904;47.814;11.134;2022-10-26T10:36:55;24.10;67.10
1812;DHT22;904;47.814;11.134;2022-10-26T10:39:39;25.00;67.40
1812;DHT22;904;47.814;11.134;2022-10-26T10:42:15;26.20;63.30
1812;DHT22;904;47.814;11.134;2022-10-26T10:44:45;27.40;55.40
1812;DHT22;904;47.814;11.134;2022-10-26T10:47:20;27.40;56.00
1812;DHT22;904;47.814;11.134;2022-10-26T10:49:53;27.90;58.20
1812;DHT22;904;47.814;11.134;2022-10-26T10:52:24;28.60;50.70
1812;DHT22;904;47.814;11.134;2022-10-26T10:58:09;27.40;47.30
1812;DHT22;904;47.814;11.134;2022-10-26T11:00:43;26.80;48.00
1812;DHT22;904;47.814;11.134;2022-10-26T11:06:08;26.20;49.30
1812;DHT22;904;47.814;11.134;2022-10-26T11:08:41;26.70;51.00
1812;DHT22;904;47.814;11.134;2022-10-26T11:11:12;28.90;50.10
1812;DHT22;904;47.814;11.134;2022-10-26T11:13:49;30.80;45.40
1812;DHT22;904;47.814;11.134;2022-10-26T11:16:22;33.80;43.70
1812;DHT22;904;47.814;11.134;2022-10-26T11:18:54;37.00;34.30
1812;DHT22;904;47.814;11.134;2022-10-26T11:21:26;37.50;30.50
1812;DHT22;904;47.814;11.134;2022-10-26T11:24:01;37.60;30.00
1812;DHT22;904;47.814;11.134;2022-10-26T11:26:39;38.40;27.60
1812;DHT22;904;47.814;11.134;2022-10-26T11:29:18;38.70;25.70
1812;DHT22;904;47.814;11.134;2022-10-26T11:31:51;38.40;24.70
1812;DHT22;904;47.814;11.134;2022-10-26T11:34:26;37.00;24.80
1812;DHT22;904;47.814;11.134;2022-10-26T11:36:58;35.50;25.90
1812;DHT22;904;47.814;11.134;2022-10-26T11:39:35;34.20;27.30
1812;DHT22;904;47.814;11.134;2022-10-26T11:42:10;33.00;27.90
1812;DHT22;904;47.814;11.134;2022-10-26T11:44:44;31.90;29.40
1812;DHT22;904;47.814;11.134;2022-10-26T11:47:17;30.90;30.60
1812;DHT22;904;47.814;11.134;2022-10-26T11:49:49;30.10;32.70
1812;DHT22;904;47.814;11.134;2022-10-26T11:52:20;29.50;34.50
1812;DHT22;904;47.814;11.134;2022-10-26T11:54:52;29.00;35.20
1812;DHT22;904;47.814;11.134;2022-10-26T11:57:20;28.40;36.40
1812;DHT22;904;47.814;11.134;2022-10-26T11:59:50;27.80;37.30
1812;DHT22;904;47.814;11.134;2022-10-26T12:02:22;27.20;37.90
1812;DHT22;904;47.814;11.134;2022-10-26T12:04:53;26.80;39.50
1812;DHT22;904;47.814;11.134;2022-10-26T12:07:28;26.30;40.20
1812;DHT22;904;47.814;11.134;2022-10-26T12:09:57;26.00;41.30
1812;DHT22;904;47.814;11.134;2022-10-26T12:12:31;25.80;42.20
1812;DHT22;904;47.814;11.134;2022-10-26T12:15:09;25.60;43.00
1812;DHT22;904;47.814;11.134;2022-10-26T12:17:45;25.40;43.20
1812;DHT22;904;47.814;11.134;2022-10-26T12:23:13;25.20;45.00
1812;DHT22;904;47.814;11.134;2022-10-26T12:25:40;25.20;45.70
1812;DHT22;904;47.814;11.134;2022-10-26T12:28:38;25.20;46.60
1812;DHT22;904;47.814;11.134;2022-10-26T12:31:42;25.40;47.10
1812;DHT22;904;47.814;11.134;2022-10-26T12:34:12;26.20;47.70
1812;DHT22;904;47.814;11.134;2022-10-26T12:36:47;26.80;45.90
1812;DHT22;904;47.814;11.134;2022-10-26T12:39:28;26.80;45.50
1812;DHT22;904;47.814;11.134;2022-10-26T12:42:08;26.50;44.30
1812;DHT22;904;47.814;11.134;2022-10-26T12:44:37;26.30;44.40
1812;DHT22;904;47.814;11.134;2022-10-26T12:47:06;26.00;45.10
1812;DHT22;904;47.814;11.134;2022-10-26T12:49:58;25.90;45.40
1812;DHT22;904;47.814;11.134;2022-10-26T12:52:48;25.80;46.20
1812;DHT22;904;47.814;11.134;2022-10-26T12:55:41;25.70;45.50
1812;DHT22;904;47.814;11.134;2022-10-26T12:58:34;26.00;47.00
1812;DHT22;904;47.814;11.134;2022-10-26T13:07:21;26.40;42.30
1812;DHT22;904;47.814;11.134;2022-10-26T13:09:59;26.00;41.00
1812;DHT22;904;47.814;11.134;2022-10-26T13:12:36;25.50;41.60
1812;DHT22;904;47.814;11.134;2022-10-26T13:15:24;25.10;42.30
1812;DHT22;904;47.814;11.134;2022-10-26T13:18:07;24.80;42.50
1812;DHT22;904;47.814;11.134;2022-10-26T13:20:36;24.40;43.80
1812;DHT22;904;47.814;11.134;2022-10-26T13:23:24;24.20;44.30
1812;DHT22;904;47.814;11.134;2022-10-26T13:26:06;23.90;44.50
1812;DHT22;904;47.814;11.134;2022-10-26T13:28:45;23.70;44.70
1812;DHT22;904;47.814;11.134;2022-10-26T13:34:12;23.30;46.50
1812;DHT22;904;47.814;11.134;2022-10-26T13:36:43;23.10;46.70
1812;DHT22;904;47.814;11.134;2022-10-26T13:39:25;22.90;47.10
1812;DHT22;904;47.814;11.134;2022-10-26T13:41:53;22.70;47.50
1812;DHT22;904;47.814;11.134;2022-10-26T13:44:27;22.50;48.10
1812;DHT22;904;47.814;11.134;2022-10-26T13:47:00;22.40;49.20
1812;DHT22;904;47.814;11.134;2022-10-26T13:49:32;22.30;49.50
1812;DHT22;904;47.814;11.134;2022-10-26T13:52:01;22.20;49.80
1812;DHT22;904;47.814;11.134;2022-10-26T13:54:34;22.10;50.50
1812;DHT22;904;47.814;11.134;2022-10-26T13:57:14;22.00;50.80
1812;DHT22;904;47.814;11.134;2022-10-26T13:59:44;21.90;51.40
1812;DHT22;904;47.814;11.134;2022-10-26T14:02:16;21.90;51.30
1812;DHT22;904;47.814;11.134;2022-10-26T14:04:47;21.90;51.70
1812;DHT22;904;47.814;11.134;2022-10-26T14:07:17;21.80;51.00
1812;DHT22;904;47.814;11.134;2022-10-26T14:09:56;21.90;51.20
1812;DHT22;904;47.814;11.134;2022-10-26T14:12:25;22.00;51.50
1812;DHT22;904;47.814;11.134;2022-10-26T14:15:02;22.00;51.40
1812;DHT22;904;47.814;11.134;2022-10-26T14:17:31;22.00;51.20
1812;DHT22;904;47.814;11.134;2022-10-26T14:19:59;22.00;51.60
1812;DHT22;904;47.814;11.134;2022-10-26T14:22:28;22.00;52.50
1812;DHT22;904;47.814;11.134;2022-10-26T14:24:58;21.90;52.60
1812;DHT22;904;47.814;11.134;2022-10-26T14:27:32;21.90;52.90
1812;DHT22;904;47.814;11.134;2022-10-26T14:29:59;21.90;52.30
1812;DHT22;904;47.814;11.134;2022-10-26T14:32:31;21.80;51.90
1812;DHT22;904;47.814;11.134;2022-10-26T14:35:02;21.80;51.70
1812;DHT22;904;47.814;11.134;2022-10-26T14:37:36;21.80;51.90
1812;DHT22;904;47.814;11.134;2022-10-26T14:40:14;21.80;52.00
1812;DHT22;904;47.814;11.134;2022-10-26T14:42:48;21.80;52.20
1812;DHT22;904;47.814;11.134;2022-10-26T14:45:29;21.70;52.80
1812;DHT22;904;47.814;11.134;2022-10-26T14:47:58;21.70;53.00
1812;DHT22;904;47.814;11.134;2022-10-26T14:50:26;21.60;52.80
1812;DHT22;904;47.814;11.134;2022-10-26T14:53:01;21.50;52.40
1812;DHT22;904;47.814;11.134;2022-10-26T14:55:31;21.50;52.70
1812;DHT22;904;47.814;11.134;2022-10-26T14:58:16;21.40;53.00
1812;DHT22;904;47.814;11.134;2022-10-26T15:00:44;21.30;53.70
1812;DHT22;904;47.814;11.134;2022-10-26T15:03:16;21.20;54.00
1812;DHT22;904;47.814;11.134;2022-10-26T15:05:48;21.10;54.00
1812;DHT22;904;47.814;11.134;2022-10-26T15:08:40;21.10;54.70
1812;DHT22;904;47.814;11.134;2022-10-26T15:11:11;21.00;54.90
1812;DHT22;904;47.814;11.134;2022-10-26T15:13:41;20.90;55.00
1812;DHT22;904;47.814;11.134;2022-10-26T15:16:15;20.80;54.90
1812;DHT22;904;47.814;11.134;2022-10-26T15:18:47;20.70;55.10
1812;DHT22;904;47.814;11.134;2022-10-26T15:21:23;20.60;55.00
1812;DHT22;904;47.814;11.134;2022-10-26T15:23:51;20.60;55.20
1812;DHT22;904;47.814;11.134;2022-10-26T15:26:23;20.40;56.60
1812;DHT22;904;47.814;11.134;2022-10-26T15:28:51;20.40;57.30
1812;DHT22;904;47.814;11.134;2022-10-26T15:31:28;20.20;57.80
1812;DHT22;904;47.814;11.134;2022-10-26T15:34:13;20.20;57.80
1812;DHT22;904;47.814;11.134;2022-10-26T15:36:41;20.10;59.00
1812;DHT22;904;47.814;11.134;2022-10-26T15:39:10;19.90;59.70
1812;DHT22;904;47.814;11.134;2022-10-26T15:41:49;19.90;59.50
1812;DHT22;904;47.814;11.134;2022-10-26T15:44:20;19.80;59.90
1812;DHT22;904;47.814;11.134;2022-10-26T15:47:00;19.80;59.70
1812;DHT22;904;47.814;11.134;2022-10-26T15:49:28;19.70;59.90
1812;DHT22;904;47.814;11.134;2022-10-26T15:51:55;19.70;62.10
1812;DHT22;904;47.814;11.134;2022-10-26T15:54:23;19.60;64.30
1812;DHT22;904;47.814;11.134;2022-10-26T15:56:52;19.50;65.00
1812;DHT22;904;47.814;11.134;2022-10-26T15:59:20;19.50;65.00
1812;DHT22;904;47.814;11.134;2022-10-26T16:01:53;19.40;65.90
1812;DHT22;904;47.814;11.134;2022-10-26T16:04:20;19.30;66.40
1812;DHT22;904;47.814;11.134;2022-10-26T16:06:48;19.20;68.50
1812;DHT22;904;47.814;11.134;2022-10-26T16:09:17;19.10;70.30
1812;DHT22;904;47.814;11.134;2022-10-26T16:11:46;19.00;71.90
1812;DHT22;904;47.814;11.134;2022-10-26T16:14:14;18.90;71.80
1812;DHT22;904;47.814;11.134;2022-10-26T16:16:46;18.80;72.80
1812;DHT22;904;47.814;11.134;2022-10-26T16:19:15;18.80;72.60
1812;DHT22;904;47.814;11.134;2022-10-26T16:21:42;18.70;72.70
1812;DHT22;904;47.814;11.134;2022-10-26T16:24:14;18.70;72.60
1812;DHT22;904;47.814;11.134;2022-10-26T16:26:43;18.60;73.30
1812;DHT22;904;47.814;11.134;2022-10-26T16:29:10;18.60;73.80
1812;DHT22;904;47.814;11.134;2022-10-26T16:31:39;18.50;75.40
1812;DHT22;904;47.814;11.134;2022-10-26T16:34:10;18.40;75.70
1812;DHT22;904;47.814;11.134;2022-10-26T16:36:37;18.30;75.80
1812;DHT22;904;47.814;11.134;2022-10-26T16:39:08;18.20;76.20
1812;DHT22;904;47.814;11.134;2022-10-26T16:41:36;18.10;76.10
1812;DHT22;904;47.814;11.134;2022-10-26T16:44:03;18.10;76.90
1812;DHT22;904;47.814;11.134;2022-10-26T16:46:32;17.90;78.20
1812;DHT22;904;47.814;11.134;2022-10-26T16:49:00;17.90;78.20
1812;DHT22;904;47.814;11.134;2022-10-26T16:51:27;17.90;78.60
1812;DHT22;904;47.814;11.134;2022-10-26T16:54:10;17.80;78.30